createdAt,value
2023-05-16T00:08:59.751Z,8.50
2023-05-16T00:19:03.907Z,8.44
2023-05-16T00:29:06.779Z,8.82
2023-05-16T00:39:11.415Z,8.63
2023-05-16T00:49:13.552Z,8.43
2023-05-16T00:59:16.600Z,8.56
2023-05-16T01:09:19.391Z,8.20
2023-05-16T01:19:58.905Z,8.52
2023-05-16T01:30:51.078Z,8.32
2023-05-16T01:41:02.778Z,7.07
2023-05-16T01:51:04.919Z,6.37
2023-05-16T02:01:07.317Z,6.36
2023-05-16T02:11:09.524Z,6.63
2023-05-16T02:21:11.976Z,6.77
2023-05-16T02:31:14.110Z,7.10
2023-05-16T02:41:16.204Z,6.95
2023-05-16T02:51:20.388Z,6.96
2023-05-16T03:01:22.707Z,7.11
2023-05-16T03:11:25.902Z,6.82
2023-05-16T03:21:27.949Z,6.40
2023-05-16T03:31:30.552Z,6.33
2023-05-16T03:41:32.864Z,6.63
2023-05-16T03:51:34.951Z,6.55
2023-05-16T04:01:37.036Z,6.59
2023-05-16T04:11:39.252Z,6.32
2023-05-16T04:21:41.361Z,6.64
2023-05-16T04:31:43.488Z,6.11
2023-05-16T04:41:46.168Z,5.93
2023-05-16T04:51:48.777Z,6.07
2023-05-16T05:01:51.200Z,7.12
2023-05-16T05:11:53.440Z,6.57
2023-05-16T05:21:55.503Z,5.84
2023-05-16T05:31:57.614Z,5.95
2023-05-16T05:41:59.717Z,5.70
2023-05-16T05:52:01.997Z,6.07
2023-05-16T06:02:04.334Z,5.72
2023-05-16T06:12:06.862Z,5.86
2023-05-16T06:22:08.922Z,6.00
2023-05-16T06:32:13.238Z,6.43
2023-05-16T06:42:16.029Z,6.15
2023-05-16T06:52:18.141Z,6.39
2023-05-16T07:02:20.457Z,7.09
2023-05-16T07:12:22.674Z,7.15
2023-05-16T07:22:24.800Z,7.58
2023-05-16T07:32:26.973Z,7.77
2023-05-16T07:42:29.420Z,7.90
2023-05-16T07:52:31.523Z,8.11
2023-05-16T08:02:34.496Z,7.78
2023-05-16T08:12:36.873Z,7.72
2023-05-16T08:22:38.998Z,8.35
2023-05-16T08:32:41.532Z,8.79
2023-05-16T08:42:45.309Z,8.33
2023-05-16T08:52:47.843Z,8.82
2023-05-16T09:02:50.096Z,8.08
2023-05-16T09:12:52.502Z,8.29
2023-05-16T09:22:56.546Z,10.39
2023-05-16T09:32:59.208Z,10.26
2023-05-16T09:43:06.348Z,9.30
2023-05-16T09:53:08.978Z,8.67
2023-05-16T10:03:11.897Z,9.66
2023-05-16T10:13:14.356Z,10.48
2023-05-16T10:23:19.397Z,10.27
2023-05-16T10:33:21.808Z,9.41
2023-05-16T10:43:26.554Z,10.93
2023-05-16T10:53:28.625Z,10.58
2023-05-16T11:03:30.978Z,11.27
2023-05-16T11:13:33.193Z,11.20
2023-05-16T11:23:35.540Z,10.16
2023-05-16T11:33:39.975Z,11.82
2023-05-16T11:43:44.000Z,10.78
2023-05-16T11:53:49.316Z,9.60
2023-05-16T12:03:56.908Z,8.97
2023-05-16T12:14:01.023Z,9.38
2023-05-16T12:24:03.287Z,10.61
2023-05-16T12:34:05.524Z,10.73
2023-05-16T12:44:17.135Z,9.90
2023-05-16T12:54:20.407Z,10.42
2023-05-16T13:04:23.576Z,10.58
2023-05-16T13:14:25.857Z,9.90
2023-05-16T13:24:27.926Z,10.64
2023-05-16T13:34:32.207Z,11.79
2023-05-16T13:44:34.366Z,10.85
2023-05-16T13:54:36.916Z,10.63
2023-05-16T14:04:39.026Z,12.21
2023-05-16T14:14:41.417Z,11.85
2023-05-16T14:24:43.507Z,11.64
2023-05-16T14:34:46.779Z,11.87
2023-05-16T14:44:49.789Z,11.68
2023-05-16T14:54:52.013Z,11.62
2023-05-16T15:04:54.823Z,11.47
2023-05-16T15:14:57.023Z,11.00
2023-05-16T15:24:59.160Z,10.58
2023-05-16T15:35:01.300Z,10.16
2023-05-16T15:45:03.637Z,10.11
2023-05-16T15:55:06.370Z,9.63
2023-05-16T16:05:08.515Z,10.33
2023-05-16T16:15:12.628Z,10.17
2023-05-16T16:25:16.827Z,10.54
2023-05-16T16:35:19.121Z,10.22
2023-05-16T16:45:29.106Z,9.98
2023-05-16T16:55:31.592Z,9.79
2023-05-16T17:05:33.774Z,9.59
2023-05-16T17:15:37.416Z,9.26
2023-05-16T17:25:40.583Z,9.78
2023-05-16T17:35:43.165Z,10.12
2023-05-16T17:45:45.264Z,9.96
2023-05-16T17:55:49.555Z,10.62
2023-05-16T18:05:54.626Z,9.38
2023-05-16T18:15:58.591Z,9.42
2023-05-16T18:26:00.926Z,9.24
2023-05-16T18:36:04.377Z,9.52
2023-05-16T18:46:06.775Z,8.57
2023-05-16T18:56:08.955Z,8.48
2023-05-16T19:06:11.453Z,9.19
2023-05-16T19:16:13.699Z,9.17
2023-05-16T19:26:16.458Z,9.20
2023-05-16T19:36:18.963Z,9.39
2023-05-16T19:46:21.253Z,9.16
2023-05-16T19:56:23.458Z,9.48
2023-05-16T20:06:25.621Z,9.32
2023-05-16T20:16:27.748Z,8.91
2023-05-16T20:26:30.501Z,9.17
2023-05-16T20:36:43.874Z,9.31
2023-05-16T20:46:46.476Z,8.76
2023-05-16T20:56:48.745Z,8.24
2023-05-16T21:06:51.352Z,8.43
2023-05-16T21:16:53.465Z,8.30
2023-05-16T21:26:56.560Z,8.82
2023-05-16T21:36:59.873Z,8.31
2023-05-16T21:47:01.994Z,8.12
2023-05-16T21:57:04.234Z,7.95
2023-05-16T22:07:06.406Z,7.77
2023-05-16T22:17:08.546Z,7.54
2023-05-16T22:27:10.657Z,7.50
2023-05-16T22:37:12.790Z,7.88
2023-05-16T22:47:14.932Z,7.22
2023-05-16T22:57:17.021Z,7.52
2023-05-16T23:07:19.159Z,6.98
2023-05-16T23:17:21.277Z,6.95
2023-05-16T23:27:23.397Z,6.76
2023-05-16T23:37:25.559Z,6.39
2023-05-16T23:47:27.770Z,6.62
2023-05-16T23:57:29.950Z,6.73
